Wilson Lahn — 8PUO — position and weather

sailwx.info

Track history (hours):
 
Tides and Currents Weather Stations Pressure Air Temp Water Temp Dewpoint Dewpoint Depression Visibility Wind Speed Wind Dir Waves Ship Positions

Wilson Lahn

Last reported at 2015-Jul-06 00:32 UTC. Time now 2015-Jul-06 00:55 UTC.
Position N 51°55' E 004°25'.

Length 83 m; draft 4.6 m.

Type: Cargo ship. MMSI: 314259000.

Date/timePositionNaut miles runAvg speedWind from/ knotsBaromVisibWave heightAir tempDewpointWater temp
2015-Jul-06 00:32N 51°55' E 004°25'0 0.0
2015-Jul-05 23:32N 51°55' E 004°25'0 0.0
2015-Jul-05 22:29N 51°55' E 004°25'0 0.0
2015-Jul-05 21:32N 51°54' E 004°25'0 0.1
2015-Jul-05 20:33N 51°54' E 004°25'7 6.6
2015-Jul-05 19:34N 51°55' E 004°14'9 9.1
2015-Jul-05 18:33N 51°60' E 004°02'10 9.4
2015-Jul-05 17:30N 52°04' E 003°47'7 7.6
2015-Jul-05 16:33N 52°11' E 003°47'7 7.4
2015-Jul-05 15:33N 52°19' E 003°48'8 7.5
2015-Jul-05 14:32N 52°26' E 003°50'11 9.3
2015-Jul-05 13:23N 52°37' E 003°54'8 9.6
2015-Jul-05 12:33N 52°45' E 003°56'1110.0
2015-Jul-05 11:26N 52°56' E 003°60'10 9.7
2015-Jul-05 10:24N 53°03' E 004°12'11 9.5
2015-Jul-05 09:13N 53°10' E 004°26'6 8.3
2015-Jul-05 08:32N 53°15' E 004°29'8 8.0
2015-Jul-05 07:33N 53°23' E 004°33'10 8.1
2015-Jul-05 06:22N 53°32' E 004°37'8 8.6
2015-Jul-05 05:29N 53°39' E 004°41'9 9.4
2015-Jul-05 04:33N 53°48' E 004°46'10 9.8
2015-Jul-05 03:33N 53°57' E 004°52'10 9.7
2015-Jul-05 02:33N 54°06' E 004°58'10 9.5
2015-Jul-05 01:33N 54°15' E 005°01'10 9.5
2015-Jul-05 00:32N 54°25' E 005°03'10 9.6
2015-Jul-04 23:32N 54°34' E 005°06'12 9.5
2015-Jul-04 22:19N 54°46' E 005°09'28 9.4
2015-Jul-04 19:23N 55°13' E 005°16'214 9.4
2015-Jul-03 20:32N 58°47' E 005°18'9 9.2
2015-Jul-03 19:33N 58°56' E 005°18'9 9.1
2015-Jul-03 18:33N 59°05' E 005°20'10 9.7
2015-Jul-03 17:33N 59°12' E 005°35'1010.4
2015-Jul-03 16:33N 59°19' E 005°50'1010.3
2015-Jul-03 15:33N 59°24' E 006°07'  
2015-Jun-30 22:30N 59°24' E 006°05'1010.9
2015-Jun-30 21:33N 59°18' E 005°49'1111.4
2015-Jun-30 20:34N 59°10' E 005°33'1010.0
2015-Jun-30 19:33N 59°07' E 005°14'10 9.7
2015-Jun-30 18:33N 59°12' E 004°58'10 9.2
2015-Jun-30 17:31N 59°20' E 004°48'  
2015-Jun-27 03:30N 59°18' E 004°48'8 8.1
2015-Jun-27 02:30N 59°10' E 004°49'8 8.3
2015-Jun-27 01:33N 59°02' E 004°50'8 8.2
2015-Jun-27 00:33N 58°54' E 004°52'  
Track history (hours):
 
Tides and Currents Weather Stations Pressure Air Temp Water Temp Dewpoint Dewpoint Depression Visibility Wind Speed Wind Dir Waves Ship Positions

Wilson Lahn

Last reported at 2015-Jul-06 00:32 UTC. Time now 2015-Jul-06 00:55 UTC.
Position N 51°55' E 004°25'.

Length 83 m; draft 4.6 m.

Type: Cargo ship. MMSI: 314259000.

Date/timePositionNaut miles runAvg speedWind from/ knotsBaromVisibWave heightAir tempDewpointWater temp
2015-Jul-06 00:32N 51°55' E 004°25'0 0.0
2015-Jul-05 23:32N 51°55' E 004°25'0 0.0
2015-Jul-05 22:29N 51°55' E 004°25'0 0.0
2015-Jul-05 21:32N 51°54' E 004°25'0 0.1
2015-Jul-05 20:33N 51°54' E 004°25'7 6.6
2015-Jul-05 19:34N 51°55' E 004°14'9 9.1
2015-Jul-05 18:33N 51°60' E 004°02'10 9.4
2015-Jul-05 17:30N 52°04' E 003°47'7 7.6
2015-Jul-05 16:33N 52°11' E 003°47'7 7.4
2015-Jul-05 15:33N 52°19' E 003°48'8 7.5
2015-Jul-05 14:32N 52°26' E 003°50'11 9.3
2015-Jul-05 13:23N 52°37' E 003°54'8 9.6
2015-Jul-05 12:33N 52°45' E 003°56'1110.0
2015-Jul-05 11:26N 52°56' E 003°60'10 9.7
2015-Jul-05 10:24N 53°03' E 004°12'11 9.5
2015-Jul-05 09:13N 53°10' E 004°26'6 8.3
2015-Jul-05 08:32N 53°15' E 004°29'8 8.0
2015-Jul-05 07:33N 53°23' E 004°33'10 8.1
2015-Jul-05 06:22N 53°32' E 004°37'8 8.6
2015-Jul-05 05:29N 53°39' E 004°41'9 9.4
2015-Jul-05 04:33N 53°48' E 004°46'10 9.8
2015-Jul-05 03:33N 53°57' E 004°52'10 9.7
2015-Jul-05 02:33N 54°06' E 004°58'10 9.5
2015-Jul-05 01:33N 54°15' E 005°01'10 9.5
2015-Jul-05 00:32N 54°25' E 005°03'10 9.6
2015-Jul-04 23:32N 54°34' E 005°06'12 9.5
2015-Jul-04 22:19N 54°46' E 005°09'28 9.4
2015-Jul-04 19:23N 55°13' E 005°16'214 9.4
2015-Jul-03 20:32N 58°47' E 005°18'9 9.2
2015-Jul-03 19:33N 58°56' E 005°18'9 9.1
2015-Jul-03 18:33N 59°05' E 005°20'10 9.7
2015-Jul-03 17:33N 59°12' E 005°35'1010.4
2015-Jul-03 16:33N 59°19' E 005°50'1010.3
2015-Jul-03 15:33N 59°24' E 006°07'  
2015-Jun-30 22:30N 59°24' E 006°05'1010.9
2015-Jun-30 21:33N 59°18' E 005°49'1111.4
2015-Jun-30 20:34N 59°10' E 005°33'1010.0
2015-Jun-30 19:33N 59°07' E 005°14'10 9.7
2015-Jun-30 18:33N 59°12' E 004°58'10 9.2
2015-Jun-30 17:31N 59°20' E 004°48'  
2015-Jun-27 03:30N 59°18' E 004°48'8 8.1
2015-Jun-27 02:30N 59°10' E 004°49'8 8.3
2015-Jun-27 01:33N 59°02' E 004°50'8 8.2
2015-Jun-27 00:33N 58°54' E 004°52'  

Dump ship's entire track history